sensor_id;sensor_type;location;lat;lon;timestamp;P1;durP1;ratioP1;P2;durP2;ratioP2
36355;SDS011;22384;54.302;18.596;2023-04-25T00:01:39;5.15;;;3.28;;
36355;SDS011;22384;54.302;18.596;2023-04-25T00:04:05;5.07;;;2.90;;
36355;SDS011;22384;54.302;18.596;2023-04-25T00:06:32;5.43;;;2.88;;
36355;SDS011;22384;54.302;18.596;2023-04-25T00:08:58;6.63;;;3.38;;
36355;SDS011;22384;54.302;18.596;2023-04-25T00:11:24;6.53;;;3.13;;
36355;SDS011;22384;54.302;18.596;2023-04-25T00:13:50;5.20;;;3.00;;
36355;SDS011;22384;54.302;18.596;2023-04-25T00:16:16;4.35;;;2.80;;
36355;SDS011;22384;54.302;18.596;2023-04-25T00:18:42;4.10;;;2.72;;
36355;SDS011;22384;54.302;18.596;2023-04-25T00:21:08;5.85;;;3.03;;
36355;SDS011;22384;54.302;18.596;2023-04-25T00:23:34;4.90;;;2.75;;
36355;SDS011;22384;54.302;18.596;2023-04-25T00:26:01;3.85;;;2.83;;
36355;SDS011;22384;54.302;18.596;2023-04-25T00:28:27;4.32;;;2.72;;
36355;SDS011;22384;54.302;18.596;2023-04-25T00:30:53;3.75;;;2.40;;
36355;SDS011;22384;54.302;18.596;2023-04-25T00:33:20;5.18;;;2.55;;
36355;SDS011;22384;54.302;18.596;2023-04-25T00:35:46;3.83;;;2.60;;
36355;SDS011;22384;54.302;18.596;2023-04-25T00:38:12;3.60;;;2.75;;
36355;SDS011;22384;54.302;18.596;2023-04-25T00:40:38;4.60;;;2.47;;
36355;SDS011;22384;54.302;18.596;2023-04-25T00:43:04;3.03;;;2.45;;
36355;SDS011;22384;54.302;18.596;2023-04-25T00:45:30;4.35;;;2.28;;
36355;SDS011;22384;54.302;18.596;2023-04-25T00:47:56;3.10;;;2.10;;
36355;SDS011;22384;54.302;18.596;2023-04-25T00:50:22;2.50;;;2.20;;
36355;SDS011;22384;54.302;18.596;2023-04-25T00:52:49;2.80;;;2.25;;
36355;SDS011;22384;54.302;18.596;2023-04-25T00:55:15;4.10;;;2.25;;
36355;SDS011;22384;54.302;18.596;2023-04-25T00:57:42;5.85;;;2.47;;
36355;SDS011;22384;54.302;18.596;2023-04-25T01:00:08;3.88;;;2.30;;
36355;SDS011;22384;54.302;18.596;2023-04-25T01:02:35;2.63;;;2.13;;
36355;SDS011;22384;54.302;18.596;2023-04-25T01:05:01;3.30;;;2.30;;
36355;SDS011;22384;54.302;18.596;2023-04-25T01:07:27;5.10;;;2.20;;
36355;SDS011;22384;54.302;18.596;2023-04-25T01:09:53;4.45;;;2.50;;
36355;SDS011;22384;54.302;18.596;2023-04-25T01:12:19;3.90;;;2.65;;
36355;SDS011;22384;54.302;18.596;2023-04-25T01:14:46;3.05;;;2.28;;
36355;SDS011;22384;54.302;18.596;2023-04-25T01:17:12;4.22;;;2.70;;
36355;SDS011;22384;54.302;18.596;2023-04-25T01:19:40;3.28;;;2.63;;
36355;SDS011;22384;54.302;18.596;2023-04-25T01:22:06;3.60;;;2.53;;
36355;SDS011;22384;54.302;18.596;2023-04-25T01:24:32;3.28;;;2.22;;
36355;SDS011;22384;54.302;18.596;2023-04-25T01:26:58;3.53;;;2.80;;
36355;SDS011;22384;54.302;18.596;2023-04-25T01:29:26;4.25;;;2.72;;
36355;SDS011;22384;54.302;18.596;2023-04-25T01:31:53;3.30;;;2.50;;
36355;SDS011;22384;54.302;18.596;2023-04-25T01:34:19;5.22;;;2.80;;
36355;SDS011;22384;54.302;18.596;2023-04-25T01:36:46;3.22;;;2.78;;
36355;SDS011;22384;54.302;18.596;2023-04-25T01:39:12;5.93;;;2.70;;
36355;SDS011;22384;54.302;18.596;2023-04-25T01:41:38;3.88;;;2.97;;
36355;SDS011;22384;54.302;18.596;2023-04-25T01:44:05;5.07;;;3.13;;
36355;SDS011;22384;54.302;18.596;2023-04-25T01:46:31;7.35;;;3.00;;
36355;SDS011;22384;54.302;18.596;2023-04-25T01:48:57;6.43;;;2.70;;
36355;SDS011;22384;54.302;18.596;2023-04-25T01:51:23;4.28;;;2.95;;
36355;SDS011;22384;54.302;18.596;2023-04-25T01:53:49;3.70;;;2.80;;
36355;SDS011;22384;54.302;18.596;2023-04-25T01:56:15;6.07;;;2.75;;
36355;SDS011;22384;54.302;18.596;2023-04-25T01:58:41;5.53;;;2.80;;
36355;SDS011;22384;54.302;18.596;2023-04-25T02:01:07;4.22;;;2.97;;
36355;SDS011;22384;54.302;18.596;2023-04-25T02:03:33;3.42;;;2.63;;
36355;SDS011;22384;54.302;18.596;2023-04-25T02:06:00;6.63;;;2.97;;
36355;SDS011;22384;54.302;18.596;2023-04-25T02:08:26;5.93;;;2.95;;
36355;SDS011;22384;54.302;18.596;2023-04-25T02:10:52;4.07;;;2.70;;
36355;SDS011;22384;54.302;18.596;2023-04-25T02:13:18;4.13;;;2.70;;
36355;SDS011;22384;54.302;18.596;2023-04-25T02:15:44;7.75;;;2.95;;
36355;SDS011;22384;54.302;18.596;2023-04-25T02:18:10;5.03;;;2.75;;
36355;SDS011;22384;54.302;18.596;2023-04-25T02:20:36;5.68;;;3.80;;
36355;SDS011;22384;54.302;18.596;2023-04-25T02:23:02;3.30;;;2.47;;
36355;SDS011;22384;54.302;18.596;2023-04-25T02:25:29;2.97;;;2.53;;
36355;SDS011;22384;54.302;18.596;2023-04-25T02:27:55;6.63;;;2.78;;
36355;SDS011;22384;54.302;18.596;2023-04-25T02:30:21;6.45;;;3.28;;
36355;SDS011;22384;54.302;18.596;2023-04-25T02:32:47;4.05;;;2.90;;
36355;SDS011;22384;54.302;18.596;2023-04-25T02:35:13;5.28;;;3.22;;
36355;SDS011;22384;54.302;18.596;2023-04-25T02:37:39;4.10;;;2.90;;
36355;SDS011;22384;54.302;18.596;2023-04-25T02:40:05;3.63;;;2.70;;
36355;SDS011;22384;54.302;18.596;2023-04-25T02:42:31;11.27;;;3.85;;
36355;SDS011;22384;54.302;18.596;2023-04-25T02:44:57;5.55;;;3.22;;
36355;SDS011;22384;54.302;18.596;2023-04-25T02:47:23;5.05;;;3.30;;
36355;SDS011;22384;54.302;18.596;2023-04-25T02:49:49;4.63;;;2.88;;
36355;SDS011;22384;54.302;18.596;2023-04-25T02:52:15;4.95;;;3.13;;
36355;SDS011;22384;54.302;18.596;2023-04-25T02:54:41;4.20;;;2.97;;
36355;SDS011;22384;54.302;18.596;2023-04-25T02:57:07;5.47;;;2.50;;
36355;SDS011;22384;54.302;18.596;2023-04-25T02:59:33;3.88;;;2.80;;
36355;SDS011;22384;54.302;18.596;2023-04-25T03:02:00;5.45;;;3.22;;
36355;SDS011;22384;54.302;18.596;2023-04-25T03:04:26;4.10;;;3.15;;
36355;SDS011;22384;54.302;18.596;2023-04-25T03:06:52;3.30;;;2.97;;
36355;SDS011;22384;54.302;18.596;2023-04-25T03:09:18;4.65;;;3.08;;
36355;SDS011;22384;54.302;18.596;2023-04-25T03:11:45;4.82;;;3.42;;
36355;SDS011;22384;54.302;18.596;2023-04-25T03:14:11;5.20;;;2.90;;
36355;SDS011;22384;54.302;18.596;2023-04-25T03:16:37;4.97;;;3.47;;
36355;SDS011;22384;54.302;18.596;2023-04-25T03:19:04;7.85;;;3.20;;
36355;SDS011;22384;54.302;18.596;2023-04-25T03:21:30;5.03;;;2.95;;
36355;SDS011;22384;54.302;18.596;2023-04-25T03:23:57;4.38;;;3.10;;
36355;SDS011;22384;54.302;18.596;2023-04-25T03:26:23;4.38;;;3.10;;
36355;SDS011;22384;54.302;18.596;2023-04-25T03:28:49;6.55;;;3.45;;
36355;SDS011;22384;54.302;18.596;2023-04-25T03:31:15;7.03;;;3.92;;
36355;SDS011;22384;54.302;18.596;2023-04-25T03:33:41;3.92;;;3.28;;
36355;SDS011;22384;54.302;18.596;2023-04-25T03:36:08;3.80;;;3.25;;
36355;SDS011;22384;54.302;18.596;2023-04-25T03:38:34;4.50;;;3.38;;
36355;SDS011;22384;54.302;18.596;2023-04-25T03:41:01;4.75;;;3.25;;
36355;SDS011;22384;54.302;18.596;2023-04-25T03:43:27;5.85;;;3.42;;
36355;SDS011;22384;54.302;18.596;2023-04-25T03:45:53;4.38;;;3.22;;
36355;SDS011;22384;54.302;18.596;2023-04-25T03:48:19;3.50;;;3.00;;
36355;SDS011;22384;54.302;18.596;2023-04-25T03:53:16;4.15;;;3.30;;
36355;SDS011;22384;54.302;18.596;2023-04-25T03:55:42;5.63;;;4.50;;
36355;SDS011;22384;54.302;18.596;2023-04-25T03:58:08;5.65;;;4.00;;
36355;SDS011;22384;54.302;18.596;2023-04-25T04:00:34;5.13;;;4.10;;
36355;SDS011;22384;54.302;18.596;2023-04-25T04:03:00;5.70;;;4.10;;
36355;SDS011;22384;54.302;18.596;2023-04-25T04:05:26;6.32;;;3.90;;
36355;SDS011;22384;54.302;18.596;2023-04-25T04:07:53;5.53;;;4.78;;
36355;SDS011;22384;54.302;18.596;2023-04-25T04:10:20;7.97;;;4.65;;
36355;SDS011;22384;54.302;18.596;2023-04-25T04:12:46;7.68;;;3.75;;
36355;SDS011;22384;54.302;18.596;2023-04-25T04:15:12;5.38;;;4.30;;
36355;SDS011;22384;54.302;18.596;2023-04-25T04:17:38;4.22;;;3.78;;
36355;SDS011;22384;54.302;18.596;2023-04-25T04:20:04;7.13;;;4.80;;
36355;SDS011;22384;54.302;18.596;2023-04-25T04:22:31;6.65;;;4.22;;
36355;SDS011;22384;54.302;18.596;2023-04-25T04:24:57;5.05;;;4.10;;
36355;SDS011;22384;54.302;18.596;2023-04-25T04:27:23;5.28;;;4.57;;
36355;SDS011;22384;54.302;18.596;2023-04-25T04:29:49;5.22;;;4.55;;
36355;SDS011;22384;54.302;18.596;2023-04-25T04:32:17;7.00;;;5.07;;
36355;SDS011;22384;54.302;18.596;2023-04-25T04:34:43;6.22;;;4.75;;
36355;SDS011;22384;54.302;18.596;2023-04-25T04:37:09;5.35;;;4.60;;
36355;SDS011;22384;54.302;18.596;2023-04-25T04:39:38;6.13;;;5.10;;
36355;SDS011;22384;54.302;18.596;2023-04-25T04:42:04;5.88;;;4.40;;
36355;SDS011;22384;54.302;18.596;2023-04-25T04:44:30;6.57;;;4.65;;
36355;SDS011;22384;54.302;18.596;2023-04-25T04:47:00;7.80;;;4.85;;
36355;SDS011;22384;54.302;18.596;2023-04-25T04:49:26;6.20;;;5.13;;
36355;SDS011;22384;54.302;18.596;2023-04-25T04:51:52;6.72;;;4.65;;
36355;SDS011;22384;54.302;18.596;2023-04-25T04:54:19;5.18;;;4.55;;
36355;SDS011;22384;54.302;18.596;2023-04-25T04:56:45;8.15;;;5.72;;
36355;SDS011;22384;54.302;18.596;2023-04-25T04:59:11;9.55;;;5.45;;
36355;SDS011;22384;54.302;18.596;2023-04-25T05:01:38;7.03;;;4.65;;
36355;SDS011;22384;54.302;18.596;2023-04-25T05:04:04;9.88;;;4.63;;
36355;SDS011;22384;54.302;18.596;2023-04-25T05:06:31;5.53;;;4.70;;
36355;SDS011;22384;54.302;18.596;2023-04-25T05:08:57;5.82;;;4.30;;
36355;SDS011;22384;54.302;18.596;2023-04-25T05:11:23;6.03;;;3.97;;
36355;SDS011;22384;54.302;18.596;2023-04-25T05:13:53;6.45;;;4.95;;
36355;SDS011;22384;54.302;18.596;2023-04-25T05:16:19;5.03;;;4.13;;
36355;SDS011;22384;54.302;18.596;2023-04-25T05:18:46;5.90;;;4.40;;
36355;SDS011;22384;54.302;18.596;2023-04-25T05:21:12;6.03;;;4.32;;
36355;SDS011;22384;54.302;18.596;2023-04-25T05:23:38;6.53;;;4.72;;
36355;SDS011;22384;54.302;18.596;2023-04-25T05:26:04;4.82;;;4.20;;
36355;SDS011;22384;54.302;18.596;2023-04-25T05:28:31;5.88;;;4.72;;
36355;SDS011;22384;54.302;18.596;2023-04-25T05:30:57;5.00;;;4.50;;
36355;SDS011;22384;54.302;18.596;2023-04-25T05:33:23;6.22;;;4.78;;
36355;SDS011;22384;54.302;18.596;2023-04-25T05:35:49;7.22;;;5.13;;
36355;SDS011;22384;54.302;18.596;2023-04-25T05:38:15;10.80;;;5.60;;
36355;SDS011;22384;54.302;18.596;2023-04-25T05:40:41;5.95;;;4.80;;
36355;SDS011;22384;54.302;18.596;2023-04-25T05:43:07;6.97;;;4.00;;
36355;SDS011;22384;54.302;18.596;2023-04-25T05:45:33;5.75;;;4.03;;
36355;SDS011;22384;54.302;18.596;2023-04-25T05:47:59;5.88;;;4.60;;
36355;SDS011;22384;54.302;18.596;2023-04-25T05:50:25;6.57;;;4.60;;
36355;SDS011;22384;54.302;18.596;2023-04-25T05:52:52;6.50;;;4.20;;
36355;SDS011;22384;54.302;18.596;2023-04-25T05:55:18;7.60;;;4.10;;
36355;SDS011;22384;54.302;18.596;2023-04-25T05:57:44;6.15;;;4.10;;
36355;SDS011;22384;54.302;18.596;2023-04-25T06:00:14;6.05;;;4.45;;
36355;SDS011;22384;54.302;18.596;2023-04-25T06:02:41;9.27;;;5.10;;
36355;SDS011;22384;54.302;18.596;2023-04-25T06:05:07;8.63;;;4.00;;
36355;SDS011;22384;54.302;18.596;2023-04-25T06:07:33;8.32;;;3.70;;
36355;SDS011;22384;54.302;18.596;2023-04-25T06:10:00;6.60;;;4.25;;
36355;SDS011;22384;54.302;18.596;2023-04-25T06:12:26;7.18;;;3.78;;
36355;SDS011;22384;54.302;18.596;2023-04-25T06:14:52;6.05;;;3.60;;
36355;SDS011;22384;54.302;18.596;2023-04-25T06:17:19;4.30;;;3.22;;
36355;SDS011;22384;54.302;18.596;2023-04-25T06:19:45;5.57;;;3.33;;
36355;SDS011;22384;54.302;18.596;2023-04-25T06:22:11;4.72;;;3.20;;
36355;SDS011;22384;54.302;18.596;2023-04-25T06:24:37;8.48;;;3.80;;
36355;SDS011;22384;54.302;18.596;2023-04-25T06:27:03;6.97;;;3.17;;
36355;SDS011;22384;54.302;18.596;2023-04-25T06:29:29;10.63;;;3.53;;
36355;SDS011;22384;54.302;18.596;2023-04-25T06:31:55;8.18;;;3.13;;
36355;SDS011;22384;54.302;18.596;2023-04-25T06:34:22;3.95;;;3.38;;
36355;SDS011;22384;54.302;18.596;2023-04-25T06:36:48;8.38;;;3.63;;
36355;SDS011;22384;54.302;18.596;2023-04-25T06:39:14;4.55;;;3.47;;
36355;SDS011;22384;54.302;18.596;2023-04-25T06:41:40;4.50;;;3.35;;
36355;SDS011;22384;54.302;18.596;2023-04-25T06:44:06;6.90;;;3.35;;
36355;SDS011;22384;54.302;18.596;2023-04-25T06:46:32;6.82;;;3.42;;
36355;SDS011;22384;54.302;18.596;2023-04-25T06:48:58;6.60;;;3.55;;
36355;SDS011;22384;54.302;18.596;2023-04-25T06:51:24;11.80;;;3.80;;
36355;SDS011;22384;54.302;18.596;2023-04-25T06:53:53;5.95;;;3.92;;
36355;SDS011;22384;54.302;18.596;2023-04-25T06:56:19;9.02;;;3.80;;
36355;SDS011;22384;54.302;18.596;2023-04-25T06:58:46;7.07;;;4.10;;
36355;SDS011;22384;54.302;18.596;2023-04-25T07:01:12;7.85;;;4.10;;
36355;SDS011;22384;54.302;18.596;2023-04-25T07:03:38;7.28;;;4.18;;
36355;SDS011;22384;54.302;18.596;2023-04-25T07:06:04;8.55;;;3.40;;
36355;SDS011;22384;54.302;18.596;2023-04-25T07:08:30;9.65;;;3.53;;
36355;SDS011;22384;54.302;18.596;2023-04-25T07:10:56;4.38;;;3.25;;
36355;SDS011;22384;54.302;18.596;2023-04-25T07:13:22;5.68;;;3.10;;
36355;SDS011;22384;54.302;18.596;2023-04-25T07:15:48;7.28;;;3.42;;
36355;SDS011;22384;54.302;18.596;2023-04-25T07:18:14;4.70;;;3.45;;
36355;SDS011;22384;54.302;18.596;2023-04-25T07:20:41;11.13;;;3.53;;
36355;SDS011;22384;54.302;18.596;2023-04-25T07:23:07;6.60;;;3.47;;
36355;SDS011;22384;54.302;18.596;2023-04-25T07:25:33;9.15;;;3.28;;
36355;SDS011;22384;54.302;18.596;2023-04-25T07:28:00;6.40;;;3.10;;
36355;SDS011;22384;54.302;18.596;2023-04-25T07:30:26;3.85;;;3.20;;
36355;SDS011;22384;54.302;18.596;2023-04-25T07:32:52;5.40;;;3.30;;
36355;SDS011;22384;54.302;18.596;2023-04-25T07:35:18;5.07;;;2.45;;
36355;SDS011;22384;54.302;18.596;2023-04-25T07:37:44;5.60;;;3.85;;
36355;SDS011;22384;54.302;18.596;2023-04-25T07:40:10;6.95;;;3.28;;
36355;SDS011;22384;54.302;18.596;2023-04-25T07:42:36;9.35;;;2.97;;
36355;SDS011;22384;54.302;18.596;2023-04-25T07:45:02;8.48;;;2.80;;
36355;SDS011;22384;54.302;18.596;2023-04-25T07:47:28;9.18;;;3.00;;
36355;SDS011;22384;54.302;18.596;2023-04-25T07:49:55;6.60;;;2.80;;
36355;SDS011;22384;54.302;18.596;2023-04-25T07:52:22;6.65;;;2.47;;
36355;SDS011;22384;54.302;18.596;2023-04-25T07:54:48;6.72;;;2.55;;
36355;SDS011;22384;54.302;18.596;2023-04-25T07:57:14;3.33;;;2.42;;
36355;SDS011;22384;54.302;18.596;2023-04-25T07:59:42;3.67;;;1.90;;
36355;SDS011;22384;54.302;18.596;2023-04-25T08:02:08;4.25;;;2.38;;
36355;SDS011;22384;54.302;18.596;2023-04-25T08:04:34;8.27;;;2.70;;
36355;SDS011;22384;54.302;18.596;2023-04-25T08:07:00;6.75;;;2.95;;
36355;SDS011;22384;54.302;18.596;2023-04-25T08:09:26;3.42;;;2.05;;
36355;SDS011;22384;54.302;18.596;2023-04-25T08:11:52;6.20;;;2.60;;
36355;SDS011;22384;54.302;18.596;2023-04-25T08:14:18;4.35;;;2.42;;
36355;SDS011;22384;54.302;18.596;2023-04-25T08:16:44;3.95;;;2.13;;
36355;SDS011;22384;54.302;18.596;2023-04-25T08:19:10;3.30;;;2.03;;
36355;SDS011;22384;54.302;18.596;2023-04-25T08:21:36;3.85;;;2.38;;
36355;SDS011;22384;54.302;18.596;2023-04-25T08:24:03;3.95;;;1.98;;
36355;SDS011;22384;54.302;18.596;2023-04-25T08:26:29;3.20;;;1.88;;
36355;SDS011;22384;54.302;18.596;2023-04-25T08:28:55;5.97;;;2.05;;
36355;SDS011;22384;54.302;18.596;2023-04-25T08:31:21;2.85;;;2.08;;
36355;SDS011;22384;54.302;18.596;2023-04-25T08:33:47;1.88;;;1.77;;
36355;SDS011;22384;54.302;18.596;2023-04-25T08:36:14;5.38;;;1.90;;
36355;SDS011;22384;54.302;18.596;2023-04-25T08:38:40;4.60;;;1.98;;
36355;SDS011;22384;54.302;18.596;2023-04-25T08:41:06;3.38;;;1.88;;
36355;SDS011;22384;54.302;18.596;2023-04-25T08:43:32;1.70;;;1.38;;
36355;SDS011;22384;54.302;18.596;2023-04-25T08:46:00;12.10;;;2.03;;
36355;SDS011;22384;54.302;18.596;2023-04-25T08:48:26;2.35;;;1.30;;
36355;SDS011;22384;54.302;18.596;2023-04-25T08:50:55;4.53;;;1.60;;
36355;SDS011;22384;54.302;18.596;2023-04-25T08:53:27;6.40;;;1.63;;
36355;SDS011;22384;54.302;18.596;2023-04-25T08:55:54;3.38;;;1.60;;
36355;SDS011;22384;54.302;18.596;2023-04-25T08:58:20;2.35;;;1.60;;
36355;SDS011;22384;54.302;18.596;2023-04-25T09:00:47;1.92;;;1.55;;
36355;SDS011;22384;54.302;18.596;2023-04-25T09:03:13;6.88;;;1.27;;
36355;SDS011;22384;54.302;18.596;2023-04-25T09:05:40;2.25;;;1.38;;
36355;SDS011;22384;54.302;18.596;2023-04-25T09:08:06;7.10;;;1.88;;
36355;SDS011;22384;54.302;18.596;2023-04-25T09:10:32;2.78;;;1.70;;
36355;SDS011;22384;54.302;18.596;2023-04-25T09:15:28;4.10;;;1.73;;
36355;SDS011;22384;54.302;18.596;2023-04-25T09:17:58;1.92;;;1.33;;
36355;SDS011;22384;54.302;18.596;2023-04-25T09:20:25;2.47;;;1.40;;
36355;SDS011;22384;54.302;18.596;2023-04-25T09:23:00;1.60;;;1.50;;
36355;SDS011;22384;54.302;18.596;2023-04-25T09:25:27;9.57;;;2.00;;
36355;SDS011;22384;54.302;18.596;2023-04-25T09:28:00;6.53;;;2.00;;
36355;SDS011;22384;54.302;18.596;2023-04-25T09:30:29;6.53;;;1.30;;
36355;SDS011;22384;54.302;18.596;2023-04-25T09:32:56;2.80;;;1.27;;
36355;SDS011;22384;54.302;18.596;2023-04-25T09:35:24;1.75;;;1.25;;
36355;SDS011;22384;54.302;18.596;2023-04-25T09:37:51;1.92;;;1.40;;
36355;SDS011;22384;54.302;18.596;2023-04-25T09:40:18;3.95;;;1.42;;
36355;SDS011;22384;54.302;18.596;2023-04-25T09:42:44;1.42;;;1.33;;
36355;SDS011;22384;54.302;18.596;2023-04-25T09:45:12;5.43;;;1.30;;
36355;SDS011;22384;54.302;18.596;2023-04-25T09:47:41;8.07;;;2.17;;
36355;SDS011;22384;54.302;18.596;2023-04-25T09:50:15;3.53;;;1.50;;
36355;SDS011;22384;54.302;18.596;2023-04-25T09:52:41;1.63;;;1.10;;
36355;SDS011;22384;54.302;18.596;2023-04-25T09:55:08;2.63;;;1.48;;
36355;SDS011;22384;54.302;18.596;2023-04-25T09:57:34;2.30;;;1.50;;
36355;SDS011;22384;54.302;18.596;2023-04-25T10:00:04;2.72;;;1.50;;
36355;SDS011;22384;54.302;18.596;2023-04-25T10:02:34;4.70;;;1.50;;
36355;SDS011;22384;54.302;18.596;2023-04-25T10:05:01;2.50;;;1.73;;
36355;SDS011;22384;54.302;18.596;2023-04-25T10:07:29;2.58;;;1.40;;
36355;SDS011;22384;54.302;18.596;2023-04-25T10:10:00;2.28;;;1.45;;
36355;SDS011;22384;54.302;18.596;2023-04-25T10:12:29;1.98;;;1.27;;
36355;SDS011;22384;54.302;18.596;2023-04-25T10:14:58;3.85;;;1.50;;
36355;SDS011;22384;54.302;18.596;2023-04-25T10:17:25;2.08;;;1.52;;
36355;SDS011;22384;54.302;18.596;2023-04-25T10:19:52;2.08;;;1.35;;
36355;SDS011;22384;54.302;18.596;2023-04-25T10:22:23;5.82;;;1.42;;
36355;SDS011;22384;54.302;18.596;2023-04-25T10:24:52;2.97;;;1.55;;
36355;SDS011;22384;54.302;18.596;2023-04-25T10:27:18;2.42;;;1.50;;
36355;SDS011;22384;54.302;18.596;2023-04-25T10:29:44;2.50;;;1.67;;
36355;SDS011;22384;54.302;18.596;2023-04-25T10:32:10;5.57;;;1.48;;
36355;SDS011;22384;54.302;18.596;2023-04-25T10:37:05;2.58;;;1.33;;
36355;SDS011;22384;54.302;18.596;2023-04-25T10:39:34;1.45;;;1.30;;
36355;SDS011;22384;54.302;18.596;2023-04-25T10:42:01;3.80;;;1.50;;
36355;SDS011;22384;54.302;18.596;2023-04-25T10:44:27;2.22;;;1.30;;
36355;SDS011;22384;54.302;18.596;2023-04-25T10:46:54;2.53;;;1.60;;
36355;SDS011;22384;54.302;18.596;2023-04-25T10:49:28;1.90;;;1.23;;
36355;SDS011;22384;54.302;18.596;2023-04-25T10:52:14;1.25;;;1.10;;
36355;SDS011;22384;54.302;18.596;2023-04-25T10:54:41;5.88;;;1.20;;
36355;SDS011;22384;54.302;18.596;2023-04-25T10:57:14;3.38;;;1.30;;
36355;SDS011;22384;54.302;18.596;2023-04-25T10:59:51;4.55;;;3.45;;
36355;SDS011;22384;54.302;18.596;2023-04-25T11:02:17;4.40;;;1.60;;
36355;SDS011;22384;54.302;18.596;2023-04-25T11:04:44;3.03;;;1.65;;
36355;SDS011;22384;54.302;18.596;2023-04-25T11:07:14;4.72;;;1.50;;
36355;SDS011;22384;54.302;18.596;2023-04-25T11:09:45;1.80;;;1.20;;
36355;SDS011;22384;54.302;18.596;2023-04-25T11:12:11;2.58;;;1.40;;
36355;SDS011;22384;54.302;18.596;2023-04-25T11:14:38;4.68;;;1.45;;
36355;SDS011;22384;54.302;18.596;2023-04-25T11:17:04;1.65;;;1.30;;
36355;SDS011;22384;54.302;18.596;2023-04-25T11:19:31;2.35;;;1.30;;
36355;SDS011;22384;54.302;18.596;2023-04-25T11:21:58;4.18;;;1.20;;
36355;SDS011;22384;54.302;18.596;2023-04-25T11:24:27;4.97;;;1.30;;
36355;SDS011;22384;54.302;18.596;2023-04-25T11:26:53;7.53;;;1.40;;
36355;SDS011;22384;54.302;18.596;2023-04-25T11:29:23;2.28;;;1.52;;
36355;SDS011;22384;54.302;18.596;2023-04-25T11:31:50;2.08;;;1.52;;
36355;SDS011;22384;54.302;18.596;2023-04-25T11:34:17;6.15;;;1.60;;
36355;SDS011;22384;54.302;18.596;2023-04-25T11:36:43;2.10;;;1.42;;
36355;SDS011;22384;54.302;18.596;2023-04-25T11:39:10;5.05;;;1.52;;
36355;SDS011;22384;54.302;18.596;2023-04-25T11:41:39;1.75;;;1.45;;
36355;SDS011;22384;54.302;18.596;2023-04-25T11:44:05;1.73;;;1.33;;
36355;SDS011;22384;54.302;18.596;2023-04-25T11:46:33;2.72;;;1.55;;
36355;SDS011;22384;54.302;18.596;2023-04-25T11:49:00;1.98;;;1.40;;
36355;SDS011;22384;54.302;18.596;2023-04-25T11:51:26;5.13;;;1.70;;
36355;SDS011;22384;54.302;18.596;2023-04-25T11:53:52;5.95;;;1.92;;
36355;SDS011;22384;54.302;18.596;2023-04-25T11:56:18;4.32;;;1.75;;
36355;SDS011;22384;54.302;18.596;2023-04-25T11:58:54;3.25;;;1.48;;
36355;SDS011;22384;54.302;18.596;2023-04-25T12:01:30;4.70;;;1.48;;
36355;SDS011;22384;54.302;18.596;2023-04-25T12:03:57;5.20;;;1.80;;
36355;SDS011;22384;54.302;18.596;2023-04-25T12:06:29;2.63;;;1.60;;
36355;SDS011;22384;54.302;18.596;2023-04-25T12:09:04;6.93;;;2.13;;
36355;SDS011;22384;54.302;18.596;2023-04-25T12:11:35;5.40;;;1.60;;
36355;SDS011;22384;54.302;18.596;2023-04-25T12:14:06;6.22;;;2.20;;
36355;SDS011;22384;54.302;18.596;2023-04-25T12:16:41;4.25;;;1.40;;
36355;SDS011;22384;54.302;18.596;2023-04-25T12:19:07;10.27;;;1.80;;
36355;SDS011;22384;54.302;18.596;2023-04-25T12:21:34;3.50;;;1.38;;
36355;SDS011;22384;54.302;18.596;2023-04-25T12:24:09;4.55;;;1.50;;
36355;SDS011;22384;54.302;18.596;2023-04-25T12:29:18;4.88;;;1.15;;
36355;SDS011;22384;54.302;18.596;2023-04-25T12:31:44;4.18;;;1.60;;
36355;SDS011;22384;54.302;18.596;2023-04-25T12:34:10;4.00;;;1.60;;
36355;SDS011;22384;54.302;18.596;2023-04-25T12:36:36;6.45;;;1.63;;
36355;SDS011;22384;54.302;18.596;2023-04-25T12:39:03;4.80;;;1.65;;
36355;SDS011;22384;54.302;18.596;2023-04-25T12:41:30;6.18;;;1.70;;
36355;SDS011;22384;54.302;18.596;2023-04-25T12:43:56;7.63;;;1.75;;
36355;SDS011;22384;54.302;18.596;2023-04-25T12:46:22;5.55;;;1.95;;
36355;SDS011;22384;54.302;18.596;2023-04-25T12:48:48;3.20;;;1.55;;
36355;SDS011;22384;54.302;18.596;2023-04-25T12:51:14;4.07;;;1.45;;
36355;SDS011;22384;54.302;18.596;2023-04-25T12:53:40;8.60;;;1.98;;
36355;SDS011;22384;54.302;18.596;2023-04-25T12:56:07;14.80;;;2.10;;
36355;SDS011;22384;54.302;18.596;2023-04-25T12:58:33;4.25;;;1.80;;
36355;SDS011;22384;54.302;18.596;2023-04-25T13:00:59;7.35;;;2.08;;
36355;SDS011;22384;54.302;18.596;2023-04-25T13:03:25;4.18;;;2.05;;
36355;SDS011;22384;54.302;18.596;2023-04-25T13:05:51;6.05;;;1.80;;
36355;SDS011;22384;54.302;18.596;2023-04-25T13:08:20;3.83;;;2.05;;
36355;SDS011;22384;54.302;18.596;2023-04-25T13:10:49;5.97;;;2.00;;
36355;SDS011;22384;54.302;18.596;2023-04-25T13:13:15;5.15;;;2.40;;
36355;SDS011;22384;54.302;18.596;2023-04-25T13:15:41;6.50;;;2.20;;
36355;SDS011;22384;54.302;18.596;2023-04-25T13:18:07;7.50;;;2.33;;
36355;SDS011;22384;54.302;18.596;2023-04-25T13:20:34;10.02;;;2.22;;
36355;SDS011;22384;54.302;18.596;2023-04-25T13:23:00;7.70;;;2.15;;
36355;SDS011;22384;54.302;18.596;2023-04-25T13:25:26;3.80;;;2.15;;
36355;SDS011;22384;54.302;18.596;2023-04-25T13:27:52;4.70;;;2.20;;
36355;SDS011;22384;54.302;18.596;2023-04-25T13:30:18;4.30;;;2.50;;
36355;SDS011;22384;54.302;18.596;2023-04-25T13:32:44;5.68;;;2.05;;
36355;SDS011;22384;54.302;18.596;2023-04-25T13:35:11;6.75;;;2.30;;
36355;SDS011;22384;54.302;18.596;2023-04-25T13:37:38;10.60;;;2.47;;
36355;SDS011;22384;54.302;18.596;2023-04-25T13:40:07;2.50;;;1.92;;
36355;SDS011;22384;54.302;18.596;2023-04-25T13:42:34;5.72;;;2.10;;
36355;SDS011;22384;54.302;18.596;2023-04-25T13:45:01;5.95;;;2.22;;
36355;SDS011;22384;54.302;18.596;2023-04-25T13:47:27;7.65;;;2.17;;
36355;SDS011;22384;54.302;18.596;2023-04-25T13:49:53;8.80;;;2.88;;
36355;SDS011;22384;54.302;18.596;2023-04-25T13:52:19;6.55;;;2.80;;
36355;SDS011;22384;54.302;18.596;2023-04-25T13:54:46;7.93;;;2.10;;
36355;SDS011;22384;54.302;18.596;2023-04-25T13:57:12;7.45;;;2.42;;
36355;SDS011;22384;54.302;18.596;2023-04-25T13:59:38;5.00;;;1.80;;
36355;SDS011;22384;54.302;18.596;2023-04-25T14:02:06;5.88;;;2.75;;
36355;SDS011;22384;54.302;18.596;2023-04-25T14:04:32;6.93;;;2.70;;
36355;SDS011;22384;54.302;18.596;2023-04-25T14:06:58;4.00;;;2.13;;
36355;SDS011;22384;54.302;18.596;2023-04-25T14:09:24;6.00;;;1.88;;
36355;SDS011;22384;54.302;18.596;2023-04-25T14:11:52;5.97;;;1.90;;
36355;SDS011;22384;54.302;18.596;2023-04-25T14:14:18;4.65;;;2.30;;
36355;SDS011;22384;54.302;18.596;2023-04-25T14:16:45;12.60;;;2.33;;
36355;SDS011;22384;54.302;18.596;2023-04-25T14:19:13;3.35;;;1.98;;
36355;SDS011;22384;54.302;18.596;2023-04-25T14:21:39;7.20;;;2.50;;
36355;SDS011;22384;54.302;18.596;2023-04-25T14:24:05;6.97;;;2.53;;
36355;SDS011;22384;54.302;18.596;2023-04-25T14:26:33;9.48;;;3.95;;
36355;SDS011;22384;54.302;18.596;2023-04-25T14:28:59;10.35;;;2.50;;
36355;SDS011;22384;54.302;18.596;2023-04-25T14:31:25;4.95;;;2.20;;
36355;SDS011;22384;54.302;18.596;2023-04-25T14:33:52;5.88;;;2.53;;
36355;SDS011;22384;54.302;18.596;2023-04-25T14:36:18;7.90;;;2.63;;
36355;SDS011;22384;54.302;18.596;2023-04-25T14:38:44;4.57;;;2.08;;
36355;SDS011;22384;54.302;18.596;2023-04-25T14:41:10;11.50;;;3.08;;